Startpagina
METAR-TAF:

METAR-TAF

Vliegvelden :

Albert, Frankrijk

breedte: 49-58-21N, lengte: 002-41-29E, hoogte: 111 m

Actueel weer

Dit bericht is 21 minuten geleden gemaakt, om 03:30 UTC
Wind 3 kt uit het westzuidwesten
Temperatuur 17°C
Vochtigheid 100%
Druk 1020 hPa
Zicht: 9000 m
Geheel bewolkt op 4800 ft

METAR: LFAQ 210330Z AUTO 24003KT 9000 OVC048 17/17 Q1020

Tijdstip: 05:51 (03:51 UTC)

Verwachting

Dit bericht is 13 uur en het 51 minuten geleden gemaakt, om 14:00 UTC
Verwachting geldig van 20 om 15 UTC tot 20 om 24 UTC
Wind 7 kt uit het westnoordwesten
Zicht 10 km of meer
Gebroken wolken op 3500 ft

TAF: LFAQ 201400Z 2015/2024 30007KT 9999 BKN035

Waarnemingen en weersverwachtingen van meer dan 4000 vliegvelden (METAR en TAF).

De beschikbare stations zijn de gele en rode punten op de kaart.

Ga met uw muis naar het station om de naam te zien.

Klik dan om waarnemingen en weersverwachtingen te zien.

kaart wijzigen: klik op de groene knoppen met een zwart kruis om in te zoomen, op de groene knop met een streepje om uit te zoomen of op de groene pijlen voor aangrenzende kaarten.


METAR-TAF: